Data for 05/15/2010

Time Sea-Level Adjusted Pressure Absolute Pressure Temperature Relative Humidity Dew Point   
(mb) (inHg) (mb) (inHg) (C) (F) (%) (C) (F)
00:05 1020 30.12 849 25.07 9 48.2 42 -3.4 25.9
00:10 1020 30.12 849 25.07 8.9 48 42 -3.3 26.1
00:15 1020 30.12 849 25.07 8.8 47.9 42 -3.3 26
00:20 1020 30.12 849 25.07 8.8 47.8 42 -3.4 25.9
00:25 1020 30.12 849 25.07 8.7 47.6 43 -3.3 26.1
00:30 1020 30.12 849 25.07 8.6 47.4 42 -3.5 25.7
00:35 1020 30.12 849 25.07 8.6 47.5 42 -3.7 25.4
00:40 1020 30.12 849 25.07 8.7 47.6 42 -3.5 25.7
00:45 1020 30.12 849 25.07 8.7 47.7 41 -3.7 25.3
00:50 1020 30.12 849 25.07 8.9 48 41 -3.5 25.7
00:55 1020 30.12 849 25.07 8.7 47.6 43 -3.3 26
01:00 1020 30.12 849 25.07 8.5 47.2 42 -3.6 25.5
01:05 1020 30.12 849 25.07 8.4 47.1 43 -3.4 25.9
01:10 1020 30.12 849 25.07 8.2 46.8 43 -3.5 25.8
01:15 1020 30.12 849 25.07 8.3 46.9 42 -3.7 25.3
01:20 1020 30.12 849 25.07 8.3 47 42 -3.7 25.3
01:25 1020 30.12 849 25.07 8.3 46.9 41 -4.1 24.6
01:30 1020 30.12 849 25.07 8.8 47.8 38 -4.6 23.7
01:35 1020 30.12 849 25.07 9 48.2 39 -4.2 24.5
01:40 1020 30.12 849 25.07 9 48.2 40 -4 24.8
01:45 1020 30.12 849 25.07 8.6 47.6 41 -3.8 25.1
01:50 1020 30.12 849 25.07 8.4 47.1 42 -3.7 25.3
01:55 1020 30.12 849 25.07 8.4 47.1 42 -3.8 25.1
02:00 1020 30.12 849 25.07 8.2 46.7 43 -3.5 25.7
02:05 1020 30.12 849 25.07 7.7 45.9 46 -3.3 26.1
02:10 1020 30.12 849 25.07 7.3 45.2 46 -3.5 25.8
02:15 1020 30.12 849 25.07 7.2 45 46 -3.6 25.4
02:20 1020 30.12 849 25.07 7.5 45.5 45 -3.7 25.3
02:25 1020 30.12 849 25.07 7.6 45.7 45 -3.7 25.4
02:30 1020 30.12 849 25.07 7.8 46 44 -3.8 25.1
02:35 1020 30.12 849 25.07 7.8 46 44 -3.7 25.3
02:40 1020 30.12 849 25.07 8 46.3 42 -4.1 24.6
02:45 1020 30.12 849 25.07 8.1 46.5 43 -3.8 25.1
02:50 1020 30.12 849 25.07 7.9 46.2 44 -3.7 25.4
02:55 1020 30.12 849 25.07 7.6 45.7 45 -3.6 25.4
03:00 1020 30.12 849 25.07 7.5 45.5 45 -3.7 25.3
03:05 1020 30.12 849 25.07 7.5 45.4 45 -3.8 25.2
03:10 1020 30.12 849 25.07 7.4 45.3 45 -3.8 25.1
03:15 1020 30.12 849 25.07 7.5 45.5 44 -4.1 24.7
03:20 1020 30.12 849 25.07 7.6 45.7 44 -3.7 25.3
03:25 1020 30.12 849 25.07 7.4 45.3 46 -3.4 25.8
03:30 1020 30.12 849 25.07 7.6 45.7 41 -4.8 23.4
03:35 1020 30.12 849 25.07 7.7 45.8 47 -2.9 26.7
03:40 1020 30.12 849 25.07 6.6 43.8 50 -3.2 26.3
03:45 1020 30.12 849 25.07 6.3 43.3 48 -3.9 25
03:50 1020 30.12 849 25.07 6.6 43.8 48 -3.6 25.6
03:55 1020 30.12 849 25.07 6.5 43.7 48 -3.6 25.5
04:00 1020 30.12 849 25.07 6.4 43.5 48 -3.7 25.3
04:05 1020 30.12 849 25.07 6.2 43.2 50 -3.3 26
04:10 1020 30.12 849 25.07 6.5 43.7 48 -3.8 25.2
04:15 1020 30.12 849 25.07 6.7 44 48 -3.6 25.6
04:20 1020 30.12 849 25.07 6.8 44.2 47 -3.7 25.3
04:25 1020 30.12 849 25.07 6.8 44.2 47 -3.7 25.3
04:30 1020 30.12 849 25.07 6.7 44 47 -3.8 25.2
04:35 1020 30.12 849 25.07 6.8 44.2 46 -3.9 25
04:40 1020 30.12 849 25.07 7 44.5 46 -3.9 25
04:45 1020 30.12 849 25.07 6.7 44.1 48 -3.6 25.5
04:50 1020 30.12 849 25.07 6.5 43.7 49 -3.6 25.6
04:55 1020 30.12 849 25.07 6.2 43.1 50 -3.4 25.8
05:00 1020 30.12 849 25.07 5.8 42.5 51 -3.4 25.9
05:05 1020 30.12 849 25.07 6 42.8 50 -3.6 25.6
05:10 1020 30.12 849 25.07 5.9 42.6 51 -3.4 25.9
05:15 1020 30.12 849 25.07 5.7 42.3 52 -3.5 25.7
05:20 1020 30.12 849 25.07 5.9 42.5 50 -3.8 25.1
05:25 1020 30.12 849 25.07 6.3 43.3 49 -3.7 25.3
05:30 1020 30.12 849 25.07 6.3 43.3 50 -3.4 25.8
05:35 1020 30.12 849 25.07 5.9 42.7 52 -3.3 26.1
05:40 1020 30.12 849 25.07 5.7 42.2 52 -3.4 25.9
05:45 1020 30.12 850 25.1 5.8 42.4 51 -3.5 25.7
05:50 1020 30.12 850 25.1 5.9 42.7 50 -3.6 25.5
05:55 1020 30.12 850 25.1 6 42.9 50 -3.7 25.4
06:00 1020 30.12 850 25.1 6.1 43.1 49 -3.8 25.1
06:05 1021 30.15 850 25.1 6.3 43.3 48 -3.9 25
06:10 1021 30.15 850 25.1 6.5 43.7 48 -3.7 25.3
06:15 1021 30.15 850 25.1 6.2 43.1 50 -3.4 25.9
06:20 1021 30.15 850 25.1 5.6 42 54 -3.1 26.4
06:25 1021 30.15 850 25.1 5.1 41.2 55 -3.1 26.4
06:30 1021 30.15 850 25.1 5 41 56 -3.1 26.4
06:35 1021 30.15 850 25.1 5 40.9 56 -3.2 26.3
06:40 1021 30.15 850 25.1 5.1 41.3 54 -3.3 26
06:45 1021 30.15 850 25.1 5.4 41.6 54 -3.2 26.2
06:50 1021 30.15 850 25.1 5.6 42.1 53 -3.1 26.4
06:55 1021 30.15 850 25.1 5.9 42.6 52 -3.1 26.4
07:00 1021 30.15 850 25.1 6.1 42.9 52 -3.1 26.4
07:05 1021 30.15 850 25.1 6.4 43.5 51 -2.9 26.8
07:10 1021 30.15 850 25.1 6.7 44.1 51 -2.8 26.9
07:15 1021 30.15 850 25.1 7.1 44.8 50 -2.7 27.1
07:20 1021 30.15 850 25.1 7.6 45.7 48 -2.7 27.1
07:25 1021 30.15 850 25.1 7.8 46.1 46 -2.9 26.7
07:30 1021 30.15 850 25.1 8.3 47 47 -2.3 27.9
07:35 1021 30.15 850 25.1 8.3 46.9 48 -2.1 28.2
07:40 1021 30.15 850 25.1 8.2 46.8 48 -2.2 28.1
07:45 1021 30.15 850 25.1 8.4 47.1 45 -2.9 26.8
07:50 1021 30.15 850 25.1 9.1 48.5 43 -2.7 27.1
07:55 1021 30.15 850 25.1 9.9 49.9 41 -2.6 27.3
08:00 1021 30.15 850 25.1 10.2 50.4 40 -2.6 27.4
08:05 1021 30.15 850 25.1 11 51.9 36 -3.3 26.1
08:10 1021 30.15 850 25.1 11.5 52.7 36 -3 26.7
08:15 1021 30.15 850 25.1 12.2 53.9 35 -2.8 26.9
08:20 1021 30.15 850 25.1 12.8 55.1 33 -2.9 26.7
08:25 1021 30.15 850 25.1 13.5 56.4 30 -3.8 25.2
08:30 1021 30.15 850 25.1 13.3 55.9 31 -3.7 25.4
08:35 1021 30.15 850 25.1 13.5 56.3 31 -3.3 26.1
08:40 1021 30.15 850 25.1 13.7 56.6 30 -3.4 25.8
08:45 1021 30.15 851 25.13 13.9 57 28 -4.2 24.4
08:50 1021 30.15 851 25.13 14.2 57.5 30 -3.3 26
08:55 1021 30.15 850 25.1 13.9 56.9 30 -3.6 25.6
09:00 1021 30.15 851 25.13 13.6 56.5 30 -3.5 25.7
09:05 1021 30.15 850 25.1 14.1 57.5 28 -3.8 25.1
09:10 1021 30.15 851 25.13 14.4 57.9 29 -3.4 26
09:15 1021 30.15 851 25.13 14.1 57.5 30 -3.3 26.1
09:20 1021 30.15 850 25.1 14.8 58.7 28 -3.4 25.9
09:25 1021 30.15 851 25.13 15.1 59.1 28 -3.3 26.1
09:30 1021 30.15 851 25.13 15.5 59.8 27 -3.2 26.2
09:35 1021 30.15 851 25.13 15.8 60.5 27 -3 26.6
09:40 1021 30.15 851 25.13 16.2 61.2 28 -2.4 27.7
09:45 1021 30.15 851 25.13 16.1 60.9 28 -2.3 27.8
09:50 1021 30.15 851 25.13 16.1 61 27 -2.7 27.1
09:55 1021 30.15 851 25.13 16.2 61.2 26 -3.1 26.5
10:00 1021 30.15 851 25.13 15.9 60.6 30 -1.8 28.8
10:05 1021 30.15 851 25.13 15.9 60.7 28 -2.5 27.5
10:10 1021 30.15 851 25.13 15.9 60.6 31 -1.3 29.7
10:15 1021 30.15 851 25.13 16.1 60.9 29 -1.8 28.7
10:20 1021 30.15 850 25.1 16.2 61.2 29 -1.8 28.8
10:25 1021 30.15 850 25.1 15.9 60.6 31 -1.2 29.9
10:30 1021 30.15 850 25.1 15.5 59.9 31 -1.5 29.4
10:35 1021 30.15 850 25.1 15.5 59.8 31 -1.7 28.9
10:40 1021 30.15 850 25.1 16.3 61.3 28 -2 28.3
10:45 1021 30.15 850 25.1 15.6 60.1 31 -1.6 29.2
10:50 1021 30.15 850 25.1 15.1 59.2 30 -2.2 28
10:55 1021 30.15 850 25.1 15.5 59.8 30 -1.7 28.9
11:00 1021 30.15 850 25.1 15.7 60.3 29 -2 28.3
11:05 1021 30.15 850 25.1 15.7 60.2 29 -2.2 28.1
11:10 1021 30.15 850 25.1 16.2 61.2 28 -2.3 27.8
11:15 1021 30.15 850 25.1 16.7 62 27 -2.1 28.2
11:20 1021 30.15 850 25.1 16.5 61.8 26 -3 26.6
11:25 1021 30.15 850 25.1 17.4 63.3 24 -3.6 25.6
11:30 1021 30.15 850 25.1 18.1 64.6 23 -3.3 26.1
11:35 1021 30.15 850 25.1 18.5 65.2 23 -3 26.5
11:40 1021 30.15 850 25.1 18.5 65.3 22 -3.2 26.2
11:45 1021 30.15 850 25.1 18.6 65.4 22 -3.4 25.9
11:50 1021 30.15 850 25.1 18 64.3 23 -3.4 25.8
11:55 1021 30.15 850 25.1 17.5 63.5 24 -3.3 26
12:00 1021 30.15 850 25.1 18.4 65 22 -3.6 25.5
12:05 1021 30.15 850 25.1 19.6 67.3 20 -3.6 25.5
12:10 1021 30.15 850 25.1 19.7 67.5 21 -2.9 26.8
12:15 1021 30.15 850 25.1 20.3 68.5 21 -2.8 26.9
12:20 1021 30.15 850 25.1 19.6 67.2 22 -2.8 26.9
12:25 1021 30.15 850 25.1 19.4 66.9 22 -2.9 26.7
12:30 1020 30.12 850 25.1 19.6 67.2 20 -4 24.9
12:35 1020 30.12 850 25.1 19.7 67.5 21 -3.1 26.4
12:40 1020 30.12 850 25.1 19.5 67.1 21 -3.4 25.9
12:45 1020 30.12 850 25.1 19.9 67.8 20 -3.3 26.1
12:50 1020 30.12 849 25.07 20.1 68.1 20 -3.4 25.8
12:55 1020 30.12 849 25.07 19.9 67.7 21 -2.7 27.1
13:00 1020 30.12 849 25.07 19.5 67.1 20 -3.8 25.2
13:05 1020 30.12 849 25.07 18.8 65.8 21 -4 24.8
13:10 1020 30.12 849 25.07 19.9 67.8 20 -3.9 25
13:15 1020 30.12 849 25.07 20.2 68.4 21 -2.6 27.3
13:20 1020 30.12 849 25.07 19.8 67.7 20 -3.4 25.9
13:25 1020 30.12 849 25.07 20.6 69.1 20 -3.1 26.4
13:30 1020 30.12 849 25.07 20.7 69.3 20 -3 26.7
13:35 1020 30.12 849 25.07 21.1 70.1 19 -3.5 25.7
13:40 1020 30.12 849 25.07 21.3 70.4 19 -3.3 26.1
13:45 1020 30.12 849 25.07 21.9 71.5 17 -3.7 25.3
13:50 1020 30.12 849 25.07 21.3 70.3 17 -4.5 24
13:55 1020 30.12 849 25.07 20.8 69.4 18 -4 24.7
14:00 1020 30.12 849 25.07 21.3 70.3 17 -4.4 24.1
14:05 1020 30.12 849 25.07 21.8 71.3 17 -4.5 24
14:10 1020 30.12 849 25.07 21.6 70.9 17 -4.3 24.3
14:15 1020 30.12 849 25.07 21.8 71.2 15 -6.2 20.9
14:20 1020 30.12 849 25.07 21.7 71.1 16 -5.4 22.3
14:25 1020 30.12 849 25.07 21.9 71.3 17 -4.5 24
14:30 1020 30.12 849 25.07 21.1 70 18 -4.2 24.5
14:35 1020 30.12 849 25.07 20.4 68.7 22 -1.7 28.9
14:40 1020 30.12 849 25.07 19.7 67.5 21 -3.1 26.5
14:45 1020 30.12 849 25.07 18.8 65.9 22 -3.4 25.9
14:50 1020 30.12 849 25.07 17.7 63.8 22 -4.3 24.2
14:55 1020 30.12 849 25.07 17.4 63.4 23 -3.6 25.6
15:00 1020 30.12 849 25.07 17.6 63.6 22 -4.2 24.5
15:05 1020 30.12 849 25.07 17.8 64.1 22 -4.3 24.2
15:10 1020 30.12 849 25.07 18.6 65.6 18 -5.8 21.6
15:15 1020 30.12 849 25.07 18.9 66 18 -6.1 21.1
15:20 1020 30.12 849 25.07 18.5 65.4 17 -6.9 19.6
15:25 1020 30.12 849 25.07 18.7 65.7 15 -8 17.5
15:30 1020 30.12 849 25.07 19.6 67.2 16 -6.5 20.2
15:35 1020 30.12 849 25.07 20.4 68.7 18 -4.8 23.4
15:40 1020 30.12 849 25.07 20 68 18 -4.7 23.5
15:45 1019 30.09 849 25.07 20 67.9 17 -5.6 21.9
15:50 1019 30.09 849 25.07 20.4 68.7 16 -5.7 21.7
15:55 1019 30.09 849 25.07 21.6 70.9 15 -6 21.1
16:00 1019 30.09 849 25.07 21.9 71.4 15 -5.7 21.7
16:05 1019 30.09 849 25.07 21.7 71 16 -5.4 22.4
16:10 1019 30.09 849 25.07 20.4 68.8 15 -7.1 19.2
16:15 1019 30.09 849 25.07 20.5 68.9 16 -6.3 20.7
16:20 1019 30.09 849 25.07 20.5 69 18 -4.4 24.1
16:25 1019 30.09 849 25.07 20.2 68.4 19 -4.3 24.2
16:30 1019 30.09 849 25.07 19.7 67.4 20 -3.7 25.4
16:35 1019 30.09 849 25.07 19.3 66.7 21 -3.4 25.8
16:40 1020 30.12 849 25.07 19 66.1 22 -3.2 26.2
16:45 1020 30.12 849 25.07 18.8 65.8 21 -3.6 25.5
16:50 1020 30.12 849 25.07 19.4 67 20 -3.7 25.3
16:55 1020 30.12 849 25.07 20.1 68.1 20 -3.5 25.8
17:00 1020 30.12 849 25.07 19.2 66.5 25 -1.1 30
17:05 1020 30.12 849 25.07 18.4 65 24 -2.2 28
17:10 1020 30.12 849 25.07 18.9 66 23 -2.5 27.5
17:15 1020 30.12 849 25.07 19.6 67.2 20 -3.9 25
17:20 1020 30.12 849 25.07 19.6 67.2 21 -3.2 26.2
17:25 1019 30.09 849 25.07 19 66.1 22 -3 26.5
17:30 1019 30.09 849 25.07 18.8 65.8 23 -2.7 27.2
17:35 1019 30.09 849 25.07 18.8 65.8 22 -3.4 25.9
17:40 1019 30.09 849 25.07 18.6 65.5 22 -3.5 25.7
17:45 1019 30.09 849 25.07 19 66.1 21 -3.9 25
17:50 1019 30.09 849 25.07 20 68 20 -3.1 26.3
17:55 1019 30.09 849 25.07 19.6 67.3 20 -3.9 25
18:00 1019 30.09 849 25.07 19.4 66.9 20 -4.2 24.4
18:05 1019 30.09 849 25.07 19 66.1 20 -4.2 24.5
18:10 1019 30.09 849 25.07 19 66.1 20 -4.6 23.7
18:15 1019 30.09 849 25.07 19.1 66.4 20 -4.3 24.3
18:20 1019 30.09 849 25.07 18.9 65.9 21 -3.6 25.6
18:25 1019 30.09 849 25.07 18.4 65.2 21 -4.4 24.1
18:30 1019 30.09 849 25.07 18.1 64.6 22 -4.1 24.7
18:35 1019 30.09 849 25.07 17.8 64 23 -3.6 25.5
18:40 1019 30.09 849 25.07 17.7 63.9 23 -3.6 25.4
18:45 1020 30.12 849 25.07 17.9 64.2 23 -3.6 25.5
18:50 1020 30.12 849 25.07 18 64.5 24 -3 26.7
18:55 1020 30.12 849 25.07 18.3 64.9 24 -2.5 27.6
19:00 1020 30.12 849 25.07 17.5 63.5 31 0.2 32.3
19:05 1020 30.12 849 25.07 16.7 62.1 32 0.1 32.2
19:10 1020 30.12 849 25.07 16.5 61.7 32 0 32
19:15 1020 30.12 849 25.07 16.5 61.7 31 -0.4 31.3
19:20 1020 30.12 849 25.07 16.5 61.6 31 -0.6 30.9
19:25 1020 30.12 849 25.07 16.4 61.6 32 -0.3 31.4
19:30 1020 30.12 849 25.07 16.5 61.7 30 -0.8 30.5
19:35 1020 30.12 849 25.07 16.5 61.7 30 -1.2 29.9
19:40 1020 30.12 849 25.07 16.4 61.5 33 0.4 32.7
19:45 1020 30.12 849 25.07 16 60.8 33 -0.1 31.8
19:50 1020 30.12 849 25.07 16.4 61.5 31 -0.8 30.6
19:55 1020 30.12 849 25.07 16.5 61.6 32 -0.2 31.6
20:00 1020 30.12 849 25.07 15.9 60.6 32 -0.8 30.5
20:05 1020 30.12 849 25.07 15.9 60.6 31 -0.9 30.3
20:10 1020 30.12 849 25.07 15.8 60.4 32 -0.9 30.3
20:15 1020 30.12 849 25.07 15.6 60 35 0.4 32.7
20:20 1020 30.12 849 25.07 15.1 59.1 38 0.9 33.7
20:25 1020 30.12 849 25.07 14.6 58.3 41 1.4 34.6
20:30 1020 30.12 849 25.07 14.5 58 39 0.9 33.6
20:35 1020 30.12 849 25.07 14.2 57.5 42 1.4 34.5
20:40 1020 30.12 849 25.07 13.8 56.8 44 1.8 35.2
20:45 1020 30.12 849 25.07 13.5 56.3 42 1 33.7
20:50 1020 30.12 849 25.07 13.6 56.5 43 1.5 34.7
20:55 1020 30.12 850 25.1 13.2 55.7 45 1.6 34.9
21:00 1020 30.12 850 25.1 12.8 55.1 47 1.8 35.3
21:05 1020 30.12 850 25.1 12.6 54.6 48 1.9 35.5
21:10 1020 30.12 850 25.1 12.3 54.2 48 1.8 35.3
21:15 1020 30.12 850 25.1 12.3 54.1 48 1.8 35.2
21:20 1020 30.12 850 25.1 12.2 54 49 1.7 35.1
21:25 1021 30.15 850 25.1 12 53.6 50 1.9 35.3
21:30 1021 30.15 850 25.1 11.7 53 51 1.8 35.3
21:35 1021 30.15 850 25.1 11.6 52.8 52 2.1 35.8
21:40 1021 30.15 850 25.1 11.4 52.5 53 2.1 35.8
21:45 1021 30.15 850 25.1 11.3 52.3 53 2.1 35.9
21:50 1021 30.15 850 25.1 11.3 52.3 53 2.1 35.7
21:55 1021 30.15 850 25.1 11.2 52.2 53 2.1 35.8
22:00 1021 30.15 850 25.1 11.1 52 53 2.1 35.7
22:05 1021 30.15 850 25.1 11 51.8 55 2.2 36
22:10 1021 30.15 850 25.1 10.8 51.4 55 2.2 36
22:15 1021 30.15 850 25.1 10.7 51.3 56 2.2 36
22:20 1021 30.15 850 25.1 10.6 51 57 2.4 36.2
22:25 1021 30.15 850 25.1 10.4 50.7 58 2.4 36.4
22:30 1021 30.15 850 25.1 10.2 50.3 59 2.5 36.4
22:35 1021 30.15 850 25.1 10 50 59 2.4 36.4
22:40 1021 30.15 850 25.1 9.9 49.8 59 2.2 36
22:45 1021 30.15 850 25.1 10 49.9 58 2.1 35.7
22:50 1021 30.15 850 25.1 10.1 50.1 58 2.1 35.8
22:55 1021 30.15 850 25.1 10 50 58 2.2 36
23:00 1021 30.15 850 25.1 9.9 49.8 58 2 35.6
23:05 1021 30.15 850 25.1 10 49.9 58 2.1 35.7
23:10 1021 30.15 850 25.1 9.9 49.8 57 1.9 35.4
23:15 1021 30.15 850 25.1 9.8 49.6 60 2.5 36.6
23:20 1021 30.15 850 25.1 9.4 48.9 60 2.1 35.8
23:25 1021 30.15 850 25.1 9.2 48.6 61 2 35.6
23:30 1021 30.15 850 25.1 9.2 48.6 60 1.9 35.5
23:35 1021 30.15 850 25.1 9.2 48.6 60 2 35.6
23:40 1021 30.15 850 25.1 9.2 48.5 61 2.1 35.7
23:45 1021 30.15 850 25.1 9.2 48.6 59 1.6 34.8
23:50 1021 30.15 850 25.1 9.5 49.1 58 1.7 35
23:55 1021 30.15 850 25.1 9.6 49.2 58 1.7 35.1